createdAt,value
2018-11-21T00:01:26.832Z,21.90
2018-11-21T00:03:55.250Z,21.80
2018-11-21T00:06:23.858Z,21.80
2018-11-21T00:08:52.349Z,21.80
2018-11-21T00:11:20.891Z,21.80
2018-11-21T00:13:49.442Z,21.80
2018-11-21T00:16:17.912Z,21.80
2018-11-21T00:18:46.401Z,21.80
2018-11-21T00:21:15.005Z,21.80
2018-11-21T00:23:43.600Z,21.80
2018-11-21T00:26:12.122Z,21.80
2018-11-21T00:28:40.769Z,21.80
2018-11-21T00:31:09.835Z,21.80
2018-11-21T00:33:38.307Z,21.80
2018-11-21T00:36:06.880Z,21.80
2018-11-21T00:38:35.376Z,21.80
2018-11-21T00:41:03.986Z,21.80
2018-11-21T00:43:32.494Z,21.70
2018-11-21T00:46:00.992Z,21.70
2018-11-21T00:48:29.464Z,21.70
2018-11-21T00:50:57.944Z,21.70
2018-11-21T00:53:26.500Z,21.70
2018-11-21T00:55:55.007Z,21.70
2018-11-21T00:58:23.583Z,21.70
2018-11-21T01:00:52.084Z,21.70
2018-11-21T01:03:20.606Z,21.70
2018-11-21T01:05:49.190Z,21.70
2018-11-21T01:08:17.770Z,21.70
2018-11-21T01:10:46.318Z,21.70
2018-11-21T01:13:16.398Z,21.70
2018-11-21T01:15:44.914Z,21.70
2018-11-21T01:18:13.425Z,21.70
2018-11-21T01:20:42.073Z,21.70
2018-11-21T01:23:10.633Z,21.70
2018-11-21T01:25:39.047Z,21.70
2018-11-21T01:28:07.603Z,21.70
2018-11-21T01:30:36.058Z,21.70
2018-11-21T01:33:09.610Z,21.70
2018-11-21T01:35:33.162Z,21.70
2018-11-21T01:38:01.631Z,21.70
2018-11-21T01:40:30.143Z,21.70
2018-11-21T01:42:58.714Z,21.70
2018-11-21T01:45:27.338Z,21.70
2018-11-21T01:47:55.802Z,21.70
2018-11-21T01:50:24.365Z,21.70
2018-11-21T01:52:52.912Z,21.70
2018-11-21T01:55:21.468Z,21.70
2018-11-21T01:57:50.067Z,21.70
2018-11-21T02:00:18.503Z,21.70
2018-11-21T02:02:47.084Z,21.70
2018-11-21T02:05:15.591Z,21.70
2018-11-21T02:07:44.151Z,21.70
2018-11-21T02:10:12.683Z,21.70
2018-11-21T02:12:41.264Z,21.70
2018-11-21T02:15:09.762Z,21.70
2018-11-21T02:17:38.371Z,21.70
2018-11-21T02:20:07.987Z,21.70
2018-11-21T02:22:36.487Z,21.70
2018-11-21T02:25:05.787Z,21.70
2018-11-21T02:27:34.419Z,21.70
2018-11-21T02:30:03.000Z,21.70
2018-11-21T02:32:31.585Z,22.10
2018-11-21T02:35:00.147Z,21.70
2018-11-21T02:37:28.777Z,21.70
2018-11-21T02:39:57.397Z,21.70
2018-11-21T02:42:25.949Z,21.70
2018-11-21T02:44:54.427Z,21.60
2018-11-21T02:47:22.978Z,21.70
2018-11-21T02:49:52.781Z,21.70
2018-11-21T02:52:21.343Z,21.60
2018-11-21T02:54:49.934Z,21.60
2018-11-21T02:57:23.243Z,21.60
2018-11-21T02:59:59.536Z,21.60
2018-11-21T03:02:28.097Z,21.60
2018-11-21T03:04:56.669Z,21.60
2018-11-21T03:07:25.225Z,21.70
2018-11-21T03:09:53.697Z,21.60
2018-11-21T03:12:22.186Z,21.60
2018-11-21T03:14:50.816Z,21.60
2018-11-21T03:17:19.406Z,21.60
2018-11-21T03:19:47.891Z,21.60
2018-11-21T03:22:16.279Z,21.60
2018-11-21T03:24:44.822Z,21.60
2018-11-21T03:27:13.285Z,21.60
2018-11-21T03:29:41.699Z,21.60
2018-11-21T03:32:10.290Z,21.60
2018-11-21T03:34:38.812Z,21.60
2018-11-21T03:37:07.445Z,21.60
2018-11-21T03:39:35.947Z,21.60
2018-11-21T03:42:04.972Z,21.60
2018-11-21T03:44:33.449Z,21.60
2018-11-21T03:47:01.971Z,21.60
2018-11-21T03:49:30.474Z,21.60
2018-11-21T03:51:58.956Z,21.60
2018-11-21T03:54:27.558Z,21.60
2018-11-21T03:56:56.155Z,21.60
2018-11-21T03:59:24.850Z,21.60
2018-11-21T04:01:53.316Z,21.60
2018-11-21T04:04:21.848Z,21.60
2018-11-21T04:06:50.480Z,21.60
2018-11-21T04:09:19.000Z,21.60
2018-11-21T04:11:47.428Z,21.60
2018-11-21T04:14:15.998Z,21.60
2018-11-21T04:16:44.468Z,21.60
2018-11-21T04:19:12.986Z,21.60
2018-11-21T04:21:41.546Z,21.60
2018-11-21T04:24:10.084Z,21.60
2018-11-21T04:26:38.541Z,21.60
2018-11-21T04:29:07.093Z,21.60
2018-11-21T04:31:35.665Z,21.60
2018-11-21T04:34:04.342Z,21.60
2018-11-21T04:36:32.848Z,21.60
2018-11-21T04:39:01.373Z,21.60
2018-11-21T04:41:29.812Z,21.60
2018-11-21T04:43:58.297Z,21.60
2018-11-21T04:46:26.838Z,21.60
2018-11-21T04:48:55.393Z,21.60
2018-11-21T04:51:23.889Z,21.60
2018-11-21T04:53:52.419Z,21.60
2018-11-21T04:56:20.896Z,21.60
2018-11-21T04:58:49.471Z,21.60
2018-11-21T05:01:17.966Z,21.60
2018-11-21T05:03:46.541Z,21.60
2018-11-21T05:06:15.048Z,21.60
2018-11-21T05:08:43.720Z,21.60
2018-11-21T05:11:12.276Z,21.60
2018-11-21T05:13:40.845Z,21.60
2018-11-21T05:16:09.305Z,21.60
2018-11-21T05:18:37.791Z,21.60
2018-11-21T05:21:06.235Z,21.60
2018-11-21T05:23:36.404Z,21.60
2018-11-21T05:26:05.079Z,21.60
2018-11-21T05:28:33.666Z,21.60
2018-11-21T05:31:02.216Z,21.60
2018-11-21T05:33:30.716Z,21.60
2018-11-21T05:35:59.216Z,21.60
2018-11-21T05:38:27.816Z,21.60
2018-11-21T05:40:56.436Z,21.60
2018-11-21T05:43:24.964Z,21.60
2018-11-21T05:45:53.584Z,21.60
2018-11-21T05:48:22.120Z,21.60
2018-11-21T05:50:50.562Z,21.60
2018-11-21T05:53:19.145Z,21.60
2018-11-21T05:55:47.754Z,21.60
2018-11-21T05:58:17.267Z,21.60
2018-11-21T06:00:49.105Z,21.60
2018-11-21T06:03:14.353Z,21.60
2018-11-21T06:05:42.871Z,21.60
2018-11-21T06:08:11.394Z,21.60
2018-11-21T06:10:39.915Z,21.60
2018-11-21T06:13:08.549Z,21.50
2018-11-21T06:15:37.090Z,21.60
2018-11-21T06:18:05.766Z,21.60
2018-11-21T06:20:34.369Z,21.60
2018-11-21T06:23:02.811Z,21.60
2018-11-21T06:25:31.228Z,21.60
2018-11-21T06:27:59.716Z,21.60
2018-11-21T06:30:28.285Z,21.60
2018-11-21T06:32:58.439Z,21.60
2018-11-21T06:35:27.173Z,21.60
2018-11-21T06:37:55.725Z,21.60
2018-11-21T06:40:24.106Z,21.60
2018-11-21T06:42:58.831Z,21.50
2018-11-21T06:45:26.444Z,21.60
2018-11-21T06:47:55.134Z,21.60
2018-11-21T06:50:23.750Z,21.60
2018-11-21T06:52:52.923Z,21.50
2018-11-21T06:55:21.435Z,21.60
2018-11-21T06:57:49.993Z,21.60
2018-11-21T07:00:18.456Z,21.60
2018-11-21T07:02:46.913Z,21.60
2018-11-21T07:05:15.508Z,21.60
2018-11-21T07:07:44.219Z,21.60
2018-11-21T07:10:14.098Z,21.60
2018-11-21T07:12:43.127Z,21.60
2018-11-21T07:15:11.655Z,21.60
2018-11-21T07:17:40.152Z,21.60
2018-11-21T07:20:10.807Z,21.60
2018-11-21T07:22:39.623Z,21.60
2018-11-21T07:25:12.243Z,21.60
2018-11-21T07:27:40.907Z,21.60
2018-11-21T07:30:11.856Z,21.70
2018-11-21T07:32:40.298Z,21.90
2018-11-21T07:35:09.275Z,21.70
2018-11-21T07:37:38.247Z,21.70
2018-11-21T07:40:08.609Z,21.70
2018-11-21T07:42:37.217Z,21.70
2018-11-21T07:45:08.007Z,21.70
2018-11-21T07:47:36.607Z,21.70
2018-11-21T07:50:07.581Z,21.70
2018-11-21T07:52:36.211Z,21.70
2018-11-21T07:55:04.725Z,21.70
2018-11-21T07:57:37.625Z,21.70
2018-11-21T08:01:06.482Z,21.60
2018-11-21T08:03:48.896Z,21.70
2018-11-21T08:06:39.234Z,21.60
2018-11-21T08:09:31.287Z,21.70
2018-11-21T08:12:33.920Z,21.60
2018-11-21T08:15:09.793Z,21.60
2018-11-21T08:18:09.486Z,21.60
2018-11-21T08:20:55.579Z,21.60
2018-11-21T08:23:43.239Z,21.60
2018-11-21T08:26:28.338Z,21.70
2018-11-21T08:28:56.913Z,21.70
2018-11-21T08:31:25.328Z,21.70
2018-11-21T08:33:53.777Z,21.70
2018-11-21T08:36:22.421Z,21.70
2018-11-21T08:38:51.116Z,21.80
2018-11-21T08:41:19.750Z,21.80
2018-11-21T08:43:48.200Z,21.80
2018-11-21T08:46:16.697Z,21.80
2018-11-21T08:48:45.177Z,21.70
2018-11-21T08:51:13.703Z,21.80
2018-11-21T08:53:42.205Z,21.80
2018-11-21T08:56:10.688Z,21.80
2018-11-21T08:58:39.217Z,21.80
2018-11-21T09:01:07.679Z,21.90
2018-11-21T09:03:36.229Z,21.90
2018-11-21T09:06:04.900Z,21.90
2018-11-21T09:08:33.452Z,21.90
2018-11-21T09:11:01.976Z,22.00
2018-11-21T09:13:30.467Z,22.00
2018-11-21T09:15:59.030Z,22.00
2018-11-21T09:18:27.631Z,22.00
2018-11-21T09:20:56.177Z,22.00
2018-11-21T09:23:24.609Z,22.00
2018-11-21T09:25:53.063Z,22.00
2018-11-21T09:28:21.628Z,22.00
2018-11-21T09:30:50.082Z,22.00
2018-11-21T09:33:18.575Z,22.20
2018-11-21T09:35:47.248Z,22.20
2018-11-21T09:38:15.713Z,22.20
2018-11-21T09:40:44.241Z,22.20
2018-11-21T09:43:12.883Z,22.20
2018-11-21T09:45:41.350Z,22.20
2018-11-21T09:48:09.933Z,22.20
2018-11-21T09:50:38.402Z,22.20
2018-11-21T09:53:06.895Z,22.20
2018-11-21T09:55:35.973Z,22.20
2018-11-21T09:58:04.149Z,22.20
2018-11-21T10:01:08.667Z,22.20
2018-11-21T10:03:38.356Z,22.20
2018-11-21T10:06:18.301Z,22.20
2018-11-21T10:08:51.074Z,22.20
2018-11-21T10:11:19.939Z,22.20
2018-11-21T10:13:48.448Z,22.20
2018-11-21T10:16:17.112Z,22.20
2018-11-21T10:18:47.083Z,22.20
2018-11-21T10:21:17.153Z,22.10
2018-11-21T10:23:45.615Z,22.20
2018-11-21T10:26:14.105Z,22.10
2018-11-21T10:28:42.915Z,22.10
2018-11-21T10:31:11.536Z,22.10
2018-11-21T10:33:39.951Z,22.10
2018-11-21T10:36:08.437Z,22.10
2018-11-21T10:38:36.982Z,22.10
2018-11-21T10:41:05.555Z,22.00
2018-11-21T10:43:35.031Z,22.00
2018-11-21T10:46:03.590Z,22.00
2018-11-21T10:48:32.054Z,22.00
2018-11-21T10:51:00.492Z,22.00
2018-11-21T10:53:28.998Z,22.00
2018-11-21T10:55:57.572Z,22.00
2018-11-21T10:58:26.069Z,21.90
2018-11-21T11:01:12.092Z,21.90
2018-11-21T11:03:43.369Z,21.90
2018-11-21T11:06:29.622Z,21.90
2018-11-21T11:09:26.134Z,21.90
2018-11-21T11:12:19.832Z,21.90
2018-11-21T11:15:25.513Z,21.90
2018-11-21T11:18:13.079Z,21.90
2018-11-21T11:20:58.765Z,21.90
2018-11-21T11:24:04.525Z,21.90
2018-11-21T11:27:06.920Z,21.90
2018-11-21T11:29:52.950Z,21.90
2018-11-21T11:32:40.557Z,21.90
2018-11-21T11:35:39.982Z,21.90
2018-11-21T11:38:23.889Z,21.90
2018-11-21T11:41:26.178Z,21.90
2018-11-21T11:44:12.425Z,21.90
2018-11-21T11:46:52.707Z,21.90
2018-11-21T11:49:38.131Z,21.90
2018-11-21T11:52:37.684Z,21.90
2018-11-21T11:55:22.871Z,21.90
2018-11-21T11:58:08.791Z,21.90
2018-11-21T12:00:54.962Z,21.90
2018-11-21T12:03:54.294Z,21.90
2018-11-21T12:06:37.784Z,21.90
2018-11-21T12:09:36.126Z,21.90
2018-11-21T12:12:22.487Z,21.90
2018-11-21T12:15:08.776Z,21.90
2018-11-21T12:18:02.401Z,21.90
2018-11-21T12:20:48.510Z,21.90
2018-11-21T12:23:28.922Z,21.90
2018-11-21T12:26:15.949Z,21.90
2018-11-21T12:29:02.038Z,21.90
2018-11-21T12:31:41.119Z,21.90
2018-11-21T12:34:30.719Z,21.90
2018-11-21T12:37:27.131Z,21.80
2018-11-21T12:40:25.080Z,21.80
2018-11-21T12:43:13.518Z,21.80
2018-11-21T12:45:58.470Z,21.80
2018-11-21T12:48:39.516Z,21.70
2018-11-21T12:51:33.246Z,21.70
2018-11-21T12:54:23.639Z,21.70
2018-11-21T12:57:11.252Z,21.70
2018-11-21T12:59:59.095Z,21.70
2018-11-21T13:02:44.968Z,21.70
2018-11-21T13:05:41.534Z,21.60
2018-11-21T13:08:32.127Z,21.60
2018-11-21T13:11:18.617Z,21.60
2018-11-21T13:14:15.400Z,21.60
2018-11-21T13:17:08.900Z,21.60
2018-11-21T13:19:48.192Z,21.60
2018-11-21T13:22:35.931Z,21.60
2018-11-21T13:25:32.502Z,21.60
2018-11-21T13:28:18.749Z,21.60
2018-11-21T13:31:08.994Z,21.60
2018-11-21T13:34:07.184Z,21.60
2018-11-21T13:36:53.422Z,21.60
2018-11-21T13:39:59.316Z,21.70
2018-11-21T13:42:45.401Z,21.60
2018-11-21T13:45:33.104Z,21.60
2018-11-21T13:48:20.400Z,21.60
2018-11-21T13:51:01.673Z,21.60
2018-11-21T13:53:42.476Z,21.60
2018-11-21T13:56:11.080Z,21.70
2018-11-21T13:58:39.515Z,21.70
2018-11-21T14:01:07.912Z,21.70
2018-11-21T14:03:36.596Z,21.70
2018-11-21T14:06:05.167Z,21.80
2018-11-21T14:08:33.702Z,21.80
2018-11-21T14:11:02.215Z,21.80
2018-11-21T14:13:30.681Z,21.80
2018-11-21T14:15:59.101Z,21.90
2018-11-21T14:18:27.595Z,21.90
2018-11-21T14:20:56.178Z,21.80
2018-11-21T14:23:24.678Z,21.90
2018-11-21T14:25:53.224Z,21.90
2018-11-21T14:28:21.689Z,21.90
2018-11-21T14:30:50.097Z,21.90
2018-11-21T14:33:18.646Z,21.90
2018-11-21T14:35:47.194Z,21.90
2018-11-21T14:38:15.688Z,21.90
2018-11-21T14:40:44.214Z,21.90
2018-11-21T14:43:12.731Z,21.90
2018-11-21T14:45:41.301Z,21.90
2018-11-21T14:48:09.867Z,21.90
2018-11-21T14:50:39.408Z,21.90
2018-11-21T14:53:07.612Z,22.00
2018-11-21T14:55:36.307Z,21.90
2018-11-21T14:58:05.038Z,21.90
2018-11-21T15:00:33.633Z,21.90
2018-11-21T15:03:02.160Z,21.90
2018-11-21T15:05:31.752Z,21.90
2018-11-21T15:07:59.296Z,21.90
2018-11-21T15:10:27.853Z,21.90
2018-11-21T15:12:56.363Z,21.90
2018-11-21T15:15:24.895Z,21.80
2018-11-21T15:17:53.458Z,21.80
2018-11-21T15:20:23.376Z,21.80
2018-11-21T15:22:51.894Z,21.80
2018-11-21T15:25:21.456Z,21.70
2018-11-21T15:27:49.956Z,21.80
2018-11-21T15:30:21.192Z,21.70
2018-11-21T15:32:49.771Z,21.70
2018-11-21T15:35:18.530Z,21.70
2018-11-21T15:37:47.070Z,21.70
2018-11-21T15:40:16.965Z,21.70
2018-11-21T15:42:45.575Z,21.70
2018-11-21T15:45:15.721Z,21.70
2018-11-21T15:47:44.945Z,21.70
2018-11-21T15:50:15.011Z,21.70
2018-11-21T15:52:43.731Z,21.70
2018-11-21T15:55:13.943Z,21.70
2018-11-21T15:57:42.588Z,21.70
2018-11-21T16:00:19.179Z,21.80
2018-11-21T16:02:48.861Z,21.80
2018-11-21T16:05:18.036Z,21.90
2018-11-21T16:07:47.866Z,21.90
2018-11-21T16:10:18.922Z,21.90
2018-11-21T16:12:46.309Z,21.90
2018-11-21T16:15:17.390Z,21.90
2018-11-21T16:17:45.957Z,21.90
2018-11-21T16:20:15.633Z,21.90
2018-11-21T16:22:44.153Z,21.90
2018-11-21T16:25:14.259Z,21.90
2018-11-21T16:27:43.513Z,21.90
2018-11-21T16:30:13.971Z,21.90
2018-11-21T16:32:42.967Z,21.90
2018-11-21T16:35:11.848Z,21.90
2018-11-21T16:37:40.988Z,21.90
2018-11-21T16:40:15.223Z,21.90
2018-11-21T16:42:43.868Z,22.00
2018-11-21T16:45:14.338Z,22.00
2018-11-21T16:47:42.825Z,22.00
2018-11-21T16:50:13.457Z,22.00
2018-11-21T16:52:41.975Z,22.00
2018-11-21T16:55:12.411Z,22.00
2018-11-21T16:57:41.149Z,22.00
2018-11-21T17:00:14.888Z,22.00
2018-11-21T17:02:43.448Z,22.00
2018-11-21T17:05:13.466Z,22.00
2018-11-21T17:07:42.312Z,22.10
2018-11-21T17:10:12.702Z,22.10
2018-11-21T17:12:41.686Z,22.10
2018-11-21T17:15:12.230Z,22.10
2018-11-21T17:17:41.193Z,22.10
2018-11-21T17:20:15.584Z,22.10
2018-11-21T17:22:44.383Z,22.10
2018-11-21T17:25:14.204Z,22.10
2018-11-21T17:27:43.228Z,22.10
2018-11-21T17:30:13.627Z,22.10
2018-11-21T17:32:42.231Z,22.10
2018-11-21T17:35:11.996Z,22.10
2018-11-21T17:37:40.773Z,22.10
2018-11-21T17:40:18.033Z,22.10
2018-11-21T17:42:46.784Z,22.20
2018-11-21T17:45:16.093Z,22.10
2018-11-21T17:47:44.631Z,22.10
2018-11-21T17:50:15.128Z,22.10
2018-11-21T17:52:43.952Z,22.10
2018-11-21T17:55:13.980Z,22.00
2018-11-21T17:57:42.484Z,22.00
2018-11-21T18:00:16.038Z,22.00
2018-11-21T18:02:44.720Z,22.00
2018-11-21T18:05:14.774Z,22.00
2018-11-21T18:07:43.460Z,22.00
2018-11-21T18:10:14.522Z,22.00
2018-11-21T18:12:43.630Z,22.00
2018-11-21T18:15:12.996Z,22.00
2018-11-21T18:17:42.302Z,22.00
2018-11-21T18:20:11.779Z,22.00
2018-11-21T18:22:40.666Z,22.00
2018-11-21T18:25:13.727Z,22.00
2018-11-21T18:27:42.413Z,21.90
2018-11-21T18:30:16.039Z,21.90
2018-11-21T18:32:45.125Z,21.90
2018-11-21T18:35:14.964Z,21.90
2018-11-21T18:37:44.166Z,21.90
2018-11-21T18:40:14.882Z,21.90
2018-11-21T18:42:43.335Z,21.80
2018-11-21T18:45:23.262Z,21.80
2018-11-21T18:47:52.064Z,21.80
2018-11-21T18:50:21.042Z,21.80
2018-11-21T18:52:50.658Z,21.80
2018-11-21T18:55:21.533Z,21.80
2018-11-21T18:58:28.865Z,21.80
2018-11-21T19:00:57.375Z,21.80
2018-11-21T19:03:26.104Z,21.80
2018-11-21T19:05:54.978Z,21.80
2018-11-21T19:08:23.454Z,21.90
2018-11-21T19:10:52.360Z,21.80
2018-11-21T19:13:21.282Z,21.90
2018-11-21T19:15:49.837Z,21.90
2018-11-21T19:18:18.310Z,21.90
2018-11-21T19:20:46.808Z,21.90
2018-11-21T19:23:15.231Z,21.90
2018-11-21T19:26:01.105Z,21.90
2018-11-21T19:28:29.637Z,21.90
2018-11-21T19:30:58.176Z,21.90
2018-11-21T19:33:26.627Z,21.90
2018-11-21T19:35:55.134Z,21.90
2018-11-21T19:38:23.650Z,21.90
2018-11-21T19:40:52.103Z,21.90
2018-11-21T19:43:20.658Z,21.90
2018-11-21T19:45:49.158Z,21.90
2018-11-21T19:48:17.628Z,21.90
2018-11-21T19:50:47.368Z,21.90
2018-11-21T19:53:14.812Z,21.90
2018-11-21T19:55:43.285Z,21.90
2018-11-21T19:58:11.806Z,21.90
2018-11-21T20:00:40.486Z,21.90
2018-11-21T20:03:08.962Z,21.90
2018-11-21T20:05:37.488Z,21.90
2018-11-21T20:08:06.036Z,21.90
2018-11-21T20:10:34.634Z,21.90
2018-11-21T20:13:03.094Z,21.90
2018-11-21T20:15:31.615Z,21.90
2018-11-21T20:18:01.231Z,21.90
2018-11-21T20:20:29.824Z,21.90
2018-11-21T20:22:58.388Z,21.90
2018-11-21T20:25:27.120Z,21.90
2018-11-21T20:27:55.693Z,21.90
2018-11-21T20:30:28.504Z,21.90
2018-11-21T20:32:57.046Z,21.90
2018-11-21T20:35:25.536Z,21.90
2018-11-21T20:37:54.043Z,21.90
2018-11-21T20:40:24.334Z,21.90
2018-11-21T20:42:52.848Z,21.90
2018-11-21T20:45:22.610Z,21.70
2018-11-21T20:47:52.156Z,21.40
2018-11-21T20:50:20.731Z,21.20
2018-11-21T20:52:49.489Z,21.20
2018-11-21T20:55:19.157Z,21.00
2018-11-21T20:57:47.683Z,20.80
2018-11-21T21:00:23.255Z,20.70
2018-11-21T21:02:51.867Z,20.40
2018-11-21T21:05:21.917Z,20.40
2018-11-21T21:07:50.375Z,20.20
2018-11-21T21:10:23.015Z,20.10
2018-11-21T21:12:51.533Z,20.10
2018-11-21T21:15:19.992Z,19.90
2018-11-21T21:17:49.361Z,19.90
2018-11-21T21:20:19.085Z,20.00
2018-11-21T21:22:48.716Z,20.20
2018-11-21T21:25:18.951Z,20.30
2018-11-21T21:27:47.481Z,20.40
2018-11-21T21:30:20.409Z,20.40
2018-11-21T21:32:49.364Z,20.50
2018-11-21T21:35:18.725Z,20.60
2018-11-21T21:37:47.257Z,20.60
2018-11-21T21:40:20.342Z,20.60
2018-11-21T21:42:46.153Z,20.30
2018-11-21T21:45:16.209Z,20.10
2018-11-21T21:47:44.683Z,19.80
2018-11-21T21:50:14.061Z,19.80
2018-11-21T21:52:44.082Z,19.80
2018-11-21T21:55:13.343Z,20.00
2018-11-21T21:57:41.863Z,20.10
2018-11-21T22:00:15.840Z,20.10
2018-11-21T22:02:44.463Z,20.10
2018-11-21T22:05:21.976Z,20.10
2018-11-21T22:07:50.471Z,20.00
2018-11-21T22:10:19.836Z,20.00
2018-11-21T22:12:48.359Z,19.90
2018-11-21T22:15:24.047Z,19.80
2018-11-21T22:17:53.393Z,19.80
2018-11-21T22:20:22.097Z,19.50
2018-11-21T22:22:51.169Z,19.30
2018-11-21T22:25:19.989Z,19.20
2018-11-21T22:27:48.447Z,19.40
2018-11-21T22:30:16.988Z,19.50
2018-11-21T22:32:46.929Z,19.60
2018-11-21T22:35:16.369Z,19.70
2018-11-21T22:37:51.123Z,19.70
2018-11-21T22:40:17.244Z,19.70
2018-11-21T22:42:46.073Z,19.80
2018-11-21T22:45:15.843Z,19.80
2018-11-21T22:47:44.470Z,19.90
2018-11-21T22:50:15.218Z,19.90
2018-11-21T22:52:44.222Z,20.00
2018-11-21T22:55:13.859Z,19.90
2018-11-21T22:57:42.985Z,19.90
2018-11-21T23:00:16.003Z,19.90
2018-11-21T23:02:44.545Z,20.00
2018-11-21T23:05:13.063Z,20.10
2018-11-21T23:07:42.502Z,20.10
2018-11-21T23:10:11.979Z,19.90
2018-11-21T23:12:40.943Z,20.10
2018-11-21T23:15:10.438Z,20.10
2018-11-21T23:17:38.897Z,20.20
2018-11-21T23:20:09.395Z,20.30
2018-11-21T23:22:38.190Z,20.40
2018-11-21T23:25:07.959Z,20.40
2018-11-21T23:27:36.465Z,20.50
2018-11-21T23:30:06.434Z,20.60
2018-11-21T23:32:34.909Z,20.60
2018-11-21T23:35:03.473Z,20.70
2018-11-21T23:37:31.886Z,20.80
2018-11-21T23:40:00.370Z,20.80
2018-11-21T23:42:28.877Z,20.90
2018-11-21T23:44:57.402Z,20.90
2018-11-21T23:47:25.967Z,21.00
2018-11-21T23:49:56.649Z,21.00
2018-11-21T23:52:25.085Z,21.10
2018-11-21T23:54:53.983Z,21.10
2018-11-21T23:57:24.978Z,21.10
2018-11-21T23:59:51.246Z,21.10
